createdAt,value
2023-02-01T00:02:23.133Z,5.20
2023-02-01T00:07:25.104Z,5.30
2023-02-01T00:12:26.971Z,5.30
2023-02-01T00:17:28.852Z,5.40
2023-02-01T00:22:30.661Z,5.40
2023-02-01T00:27:32.471Z,5.40
2023-02-01T00:32:34.307Z,5.40
2023-02-01T00:37:36.075Z,5.50
2023-02-01T00:42:37.903Z,5.40
2023-02-01T00:47:39.709Z,5.40
2023-02-01T00:52:41.516Z,5.30
2023-02-01T00:57:43.425Z,5.40
2023-02-01T01:02:45.534Z,5.40
2023-02-01T01:07:47.374Z,5.50
2023-02-01T01:12:49.280Z,5.40
2023-02-01T01:17:51.069Z,5.30
2023-02-01T01:22:52.876Z,5.40
2023-02-01T01:27:54.847Z,5.40
2023-02-01T01:32:56.720Z,5.40
2023-02-01T01:37:59.189Z,5.30
2023-02-01T01:43:01.809Z,5.40
2023-02-01T01:48:13.463Z,5.20
2023-02-01T01:53:22.213Z,5.10
2023-02-01T01:58:27.099Z,5.10
2023-02-01T02:03:39.894Z,5.20
2023-02-01T02:08:41.840Z,5.20
2023-02-01T02:13:49.093Z,5.40
2023-02-01T02:19:06.405Z,5.30
2023-02-01T02:24:31.830Z,5.20
2023-02-01T02:30:03.105Z,5.20
2023-02-01T02:35:43.448Z,5.20
2023-02-01T02:41:39.291Z,5.30
2023-02-01T02:47:08.436Z,5.30
2023-02-01T02:52:36.477Z,5.40
2023-02-01T02:58:01.602Z,5.30
2023-02-01T03:03:22.749Z,5.20
2023-02-01T03:08:26.863Z,5.30
2023-02-01T03:13:50.023Z,5.20
2023-02-01T03:19:00.728Z,5.20
2023-02-01T03:24:21.692Z,5.30
2023-02-01T03:29:28.591Z,5.30
2023-02-01T03:34:30.605Z,5.40
2023-02-01T03:39:40.512Z,5.40
2023-02-01T03:44:54.362Z,5.50
2023-02-01T03:50:07.929Z,5.40
2023-02-01T03:55:12.055Z,5.40
2023-02-01T04:00:23.176Z,5.40
2023-02-01T04:05:25.915Z,5.50
2023-02-01T04:10:33.009Z,5.50
2023-02-01T04:15:35.900Z,5.40
2023-02-01T04:20:37.713Z,5.50
2023-02-01T04:25:39.470Z,5.60
2023-02-01T04:30:41.315Z,5.50
2023-02-01T04:35:43.278Z,5.60
2023-02-01T04:40:48.260Z,5.50
2023-02-01T04:45:50.923Z,5.50
2023-02-01T04:50:52.842Z,5.40
2023-02-01T04:55:55.077Z,5.50
2023-02-01T05:00:56.980Z,5.40
2023-02-01T05:05:58.838Z,5.40
2023-02-01T05:11:03.544Z,5.40
2023-02-01T05:16:06.253Z,5.40
2023-02-01T05:21:08.296Z,5.30
2023-02-01T05:26:10.274Z,5.30
2023-02-01T05:31:12.731Z,5.30
2023-02-01T05:36:15.238Z,5.30
2023-02-01T05:41:17.180Z,5.30
2023-02-01T05:46:19.234Z,5.30
2023-02-01T05:51:21.142Z,5.40
2023-02-01T05:56:23.224Z,5.40
2023-02-01T06:01:25.030Z,5.40
2023-02-01T06:06:26.807Z,5.40
2023-02-01T06:11:33.096Z,5.50
2023-02-01T06:16:35.140Z,5.50
2023-02-01T06:21:37.573Z,5.50
2023-02-01T06:26:41.022Z,5.40
2023-02-01T06:31:43.779Z,5.40
2023-02-01T06:36:45.772Z,5.30
2023-02-01T06:41:51.029Z,5.30
2023-02-01T06:46:52.894Z,5.20
2023-02-01T06:51:54.721Z,5.20
2023-02-01T06:56:56.496Z,5.10
2023-02-01T07:01:58.472Z,5.10
2023-02-01T07:07:00.307Z,5.10
2023-02-01T07:12:02.242Z,5.10
2023-02-01T07:17:04.292Z,4.90
2023-02-01T07:22:08.339Z,4.80
2023-02-01T07:27:13.059Z,4.90
2023-02-01T07:32:19.195Z,4.90
2023-02-01T07:37:21.314Z,5.00
2023-02-01T07:42:23.204Z,5.20
2023-02-01T07:47:24.980Z,5.30
2023-02-01T07:52:29.597Z,5.30
2023-02-01T07:57:31.357Z,5.40
2023-02-01T08:02:33.204Z,5.40
2023-02-01T08:07:35.061Z,5.50
2023-02-01T08:12:37.241Z,5.60
2023-02-01T08:17:39.305Z,5.50
2023-02-01T08:22:41.268Z,5.50
2023-02-01T08:27:43.415Z,5.80
2023-02-01T08:32:45.213Z,6.90
2023-02-01T08:37:46.973Z,10.30
2023-02-01T08:42:51.724Z,12.20
2023-02-01T08:47:54.492Z,10.00
2023-02-01T08:52:56.600Z,8.40
2023-02-01T08:57:58.445Z,7.80
2023-02-01T09:03:00.288Z,9.40
2023-02-01T09:08:02.157Z,12.50
2023-02-01T09:13:04.383Z,10.40
2023-02-01T09:18:06.295Z,8.80
2023-02-01T09:23:08.539Z,7.90
2023-02-01T09:28:10.975Z,7.80
2023-02-01T09:33:13.093Z,7.50
2023-02-01T09:38:15.009Z,7.40
2023-02-01T09:43:29.674Z,7.40
2023-02-01T09:48:39.259Z,7.40
2023-02-01T09:53:48.906Z,7.30
2023-02-01T09:59:04.694Z,7.30
2023-02-01T10:04:11.395Z,7.30
2023-02-01T10:09:13.453Z,7.30
2023-02-01T10:14:34.059Z,7.30
2023-02-01T10:20:03.079Z,7.10
2023-02-01T10:25:08.524Z,7.30
2023-02-01T10:30:13.446Z,7.20
2023-02-01T10:35:25.080Z,7.10
2023-02-01T10:40:27.474Z,7.20
2023-02-01T10:45:31.506Z,7.30
2023-02-01T10:50:48.282Z,7.40
2023-02-01T10:55:52.578Z,7.40
2023-02-01T11:00:59.189Z,7.50
2023-02-01T11:06:04.059Z,7.50
2023-02-01T11:11:07.798Z,7.50
2023-02-01T11:16:15.807Z,7.50
2023-02-01T11:21:18.209Z,7.30
2023-02-01T11:26:27.968Z,7.30
2023-02-01T11:31:30.517Z,7.30
2023-02-01T11:36:36.450Z,7.30
2023-02-01T11:41:59.935Z,7.20
2023-02-01T11:47:22.226Z,7.20
2023-02-01T11:53:04.570Z,7.20
2023-02-01T11:58:43.797Z,7.20
2023-02-01T12:03:59.669Z,7.40
2023-02-01T12:09:13.753Z,7.30
2023-02-01T12:14:23.533Z,7.40
2023-02-01T12:19:58.418Z,7.40
2023-02-01T12:25:01.583Z,7.30
2023-02-01T12:30:30.768Z,7.40
2023-02-01T12:36:07.074Z,7.30
2023-02-01T12:41:23.868Z,7.30
2023-02-01T12:46:46.156Z,7.30
2023-02-01T12:51:51.075Z,7.30
2023-02-01T12:57:02.771Z,7.30
2023-02-01T13:02:29.039Z,7.30
2023-02-01T13:07:40.477Z,7.20
2023-02-01T13:12:51.241Z,7.30
2023-02-01T13:17:55.693Z,7.40
2023-02-01T13:23:11.325Z,7.40
2023-02-01T13:28:21.073Z,7.30
2023-02-01T13:33:53.354Z,7.30
2023-02-01T13:39:21.459Z,7.40
2023-02-01T13:44:41.513Z,7.40
2023-02-01T13:49:44.005Z,7.30
2023-02-01T13:54:46.497Z,7.30
2023-02-01T13:59:53.493Z,7.30
2023-02-01T14:04:55.785Z,7.20
2023-02-01T14:09:57.584Z,7.30
2023-02-01T14:15:23.004Z,7.30
2023-02-01T14:20:46.519Z,7.30
2023-02-01T14:26:02.115Z,7.30
2023-02-01T14:31:17.248Z,7.30
2023-02-01T14:36:19.345Z,7.30
2023-02-01T14:41:32.628Z,7.30
2023-02-01T14:47:07.525Z,7.40
2023-02-01T14:52:15.433Z,7.40
2023-02-01T14:57:20.606Z,7.40
2023-02-01T15:02:26.512Z,7.40
2023-02-01T15:07:29.491Z,7.20
2023-02-01T15:12:33.652Z,7.20
2023-02-01T15:17:35.578Z,7.20
2023-02-01T15:22:37.336Z,7.20
2023-02-01T15:27:39.224Z,7.20
2023-02-01T15:32:41.443Z,7.20
2023-02-01T15:37:43.197Z,7.30
2023-02-01T15:42:53.718Z,7.20
2023-02-01T15:47:57.415Z,7.20
2023-02-01T15:52:59.425Z,7.10
2023-02-01T15:58:03.728Z,7.10
2023-02-01T16:03:06.420Z,7.00
2023-02-01T16:08:18.482Z,7.10
2023-02-01T16:13:21.578Z,7.10
2023-02-01T16:18:23.432Z,7.00
2023-02-01T16:23:25.276Z,7.10
2023-02-01T16:28:27.182Z,7.00
2023-02-01T16:33:28.996Z,7.00
2023-02-01T16:38:32.187Z,7.00
2023-02-01T16:43:33.972Z,7.00
2023-02-01T16:48:37.665Z,7.20
2023-02-01T16:53:53.537Z,7.10
2023-02-01T16:58:55.942Z,7.20
2023-02-01T17:03:58.084Z,7.20
2023-02-01T17:09:01.233Z,7.10
2023-02-01T17:14:23.489Z,7.20
2023-02-01T17:19:25.486Z,7.20
2023-02-01T17:24:42.357Z,7.10
2023-02-01T17:29:49.806Z,7.00
2023-02-01T17:34:51.931Z,6.90
2023-02-01T17:39:56.809Z,6.80
2023-02-01T17:45:01.772Z,6.80
2023-02-01T17:50:04.060Z,6.80
2023-02-01T17:55:25.651Z,6.80
2023-02-01T18:00:28.041Z,6.80
2023-02-01T18:05:42.694Z,6.80
2023-02-01T18:10:44.969Z,6.80
2023-02-01T18:15:46.766Z,6.90
2023-02-01T18:20:49.403Z,6.90
2023-02-01T18:25:52.516Z,6.90
2023-02-01T18:30:54.417Z,6.90
2023-02-01T18:35:56.343Z,6.80
2023-02-01T18:40:58.257Z,6.80
2023-02-01T18:46:00.131Z,6.80
2023-02-01T18:51:02.371Z,6.70
2023-02-01T18:56:05.028Z,6.70
2023-02-01T19:01:11.786Z,6.80
2023-02-01T19:06:17.056Z,6.70
2023-02-01T19:11:19.021Z,6.60
2023-02-01T19:16:20.981Z,6.60
2023-02-01T19:21:22.918Z,6.60
2023-02-01T19:26:25.062Z,6.70
2023-02-01T19:31:27.035Z,6.80
2023-02-01T19:36:29.150Z,6.80
2023-02-01T19:41:31.124Z,6.80
2023-02-01T19:46:33.159Z,6.80
2023-02-01T19:51:35.178Z,6.90
2023-02-01T19:56:37.525Z,6.80
2023-02-01T20:01:38.530Z,6.70
2023-02-01T20:06:48.714Z,6.70
2023-02-01T20:11:53.833Z,6.70
2023-02-01T20:16:56.091Z,6.60
2023-02-01T20:21:59.352Z,6.60
2023-02-01T20:27:02.019Z,6.50
2023-02-01T20:32:04.263Z,6.40
2023-02-01T20:37:06.979Z,6.20
2023-02-01T20:42:09.430Z,6.30
2023-02-01T20:47:11.480Z,6.20
2023-02-01T20:52:13.456Z,6.10
2023-02-01T20:57:15.640Z,6.20
2023-02-01T21:02:17.852Z,6.10
2023-02-01T21:07:20.342Z,6.10
2023-02-01T21:12:22.879Z,6.20
2023-02-01T21:17:28.365Z,6.10
2023-02-01T21:22:30.732Z,6.10
2023-02-01T21:27:32.499Z,6.10
2023-02-01T21:32:35.266Z,6.10
2023-02-01T21:37:37.260Z,6.10
2023-02-01T21:42:40.486Z,6.00
2023-02-01T21:47:42.701Z,6.10
2023-02-01T21:52:45.015Z,6.10
2023-02-01T21:57:46.855Z,6.10
2023-02-01T22:02:48.668Z,6.20
2023-02-01T22:07:50.409Z,6.20
2023-02-01T22:12:52.164Z,6.30
2023-02-01T22:17:53.958Z,6.30
2023-02-01T22:22:56.565Z,6.40
2023-02-01T22:28:31.019Z,6.40
2023-02-01T22:33:20.774Z,6.40
2023-02-01T22:38:23.087Z,6.50
2023-02-01T22:43:25.573Z,6.50
2023-02-01T22:48:28.533Z,6.50
2023-02-01T22:53:31.312Z,6.60
2023-02-01T22:58:35.962Z,6.70
2023-02-01T23:03:38.584Z,6.60
2023-02-01T23:08:40.540Z,6.20
2023-02-01T23:13:42.370Z,5.80
2023-02-01T23:18:44.137Z,5.60
2023-02-01T23:23:48.234Z,5.40
2023-02-01T23:28:50.784Z,5.50
2023-02-01T23:33:56.573Z,5.40
2023-02-01T23:38:58.672Z,5.60
2023-02-01T23:44:01.037Z,5.50
2023-02-01T23:49:05.461Z,5.60
2023-02-01T23:54:09.513Z,5.60
2023-02-01T23:59:21.113Z,5.70
